createdAt,value
2017-12-09T00:01:19.318Z,2.75
2017-12-09T00:02:47.599Z,2.77
2017-12-09T00:04:13.747Z,2.78
2017-12-09T00:05:40.978Z,2.80
2017-12-09T00:07:09.229Z,2.80
2017-12-09T00:08:36.371Z,2.81
2017-12-09T00:10:03.564Z,2.81
2017-12-09T00:11:29.928Z,2.84
2017-12-09T00:12:57.159Z,2.85
2017-12-09T00:14:24.478Z,2.88
2017-12-09T00:15:51.736Z,2.91
2017-12-09T00:17:19.984Z,2.94
2017-12-09T00:18:45.986Z,2.94
2017-12-09T00:20:13.215Z,2.94
2017-12-09T00:21:40.399Z,2.87
2017-12-09T00:23:08.741Z,2.81
2017-12-09T00:24:34.922Z,2.80
2017-12-09T00:26:03.149Z,2.80
2017-12-09T00:27:30.533Z,2.77
2017-12-09T00:28:56.737Z,2.77
2017-12-09T00:30:24.971Z,2.72
2017-12-09T00:31:52.264Z,2.73
2017-12-09T00:33:18.443Z,2.77
2017-12-09T00:34:46.616Z,2.74
2017-12-09T00:36:13.782Z,2.76
2017-12-09T00:37:39.961Z,2.76
2017-12-09T00:39:07.180Z,2.69
2017-12-09T00:40:34.364Z,2.69
2017-12-09T00:42:02.591Z,2.65
2017-12-09T00:43:29.753Z,2.69
2017-12-09T00:44:55.978Z,2.72
2017-12-09T00:46:24.258Z,2.72
2017-12-09T00:47:51.491Z,2.77
2017-12-09T00:49:17.820Z,2.78
2017-12-09T00:50:44.996Z,2.80
2017-12-09T00:52:13.200Z,2.80
2017-12-09T00:53:40.608Z,2.80
2017-12-09T00:55:07.836Z,2.73
2017-12-09T00:56:34.741Z,2.76
2017-12-09T00:58:00.936Z,2.78
2017-12-09T00:59:29.222Z,2.80
2017-12-09T01:00:55.534Z,2.80
2017-12-09T01:02:22.771Z,2.81
2017-12-09T01:03:50.107Z,2.79
2017-12-09T01:05:18.228Z,2.79
2017-12-09T01:06:45.399Z,2.77
2017-12-09T01:08:12.761Z,2.76
2017-12-09T01:09:39.045Z,2.76
2017-12-09T01:11:06.018Z,2.66
2017-12-09T01:12:32.979Z,2.67
2017-12-09T01:14:01.029Z,2.68
2017-12-09T01:15:27.364Z,2.63
2017-12-09T01:16:54.725Z,2.66
2017-12-09T01:18:22.025Z,2.65
2017-12-09T01:19:49.220Z,2.70
2017-12-09T01:21:16.489Z,2.71
2017-12-09T01:22:43.818Z,2.65
2017-12-09T01:24:12.005Z,2.61
2017-12-09T01:25:39.366Z,2.57
2017-12-09T01:27:05.429Z,2.61
2017-12-09T01:28:33.708Z,2.62
2017-12-09T01:30:00.841Z,2.60
2017-12-09T01:31:27.140Z,2.61
2017-12-09T01:32:55.346Z,2.65
2017-12-09T01:34:21.618Z,2.70
2017-12-09T01:35:49.007Z,2.73
2017-12-09T01:37:17.024Z,2.77
2017-12-09T01:38:43.103Z,2.79
2017-12-09T01:40:10.263Z,2.80
2017-12-09T01:41:37.500Z,2.79
2017-12-09T01:43:04.576Z,2.81
2017-12-09T01:44:31.859Z,2.82
2017-12-09T01:45:59.101Z,2.82
2017-12-09T01:47:26.342Z,2.83
2017-12-09T01:48:53.667Z,2.82
2017-12-09T01:50:21.743Z,2.78
2017-12-09T01:51:48.267Z,2.75
2017-12-09T01:53:15.330Z,2.74
2017-12-09T01:54:42.456Z,2.72
2017-12-09T01:56:10.541Z,2.72
2017-12-09T01:57:36.837Z,2.71
2017-12-09T01:59:04.989Z,2.70
2017-12-09T02:00:31.316Z,2.67
2017-12-09T02:01:58.569Z,2.67
2017-12-09T02:03:25.649Z,2.67
2017-12-09T02:04:53.911Z,2.68
2017-12-09T02:06:20.195Z,2.68
2017-12-09T02:07:47.345Z,2.68
2017-12-09T02:09:15.381Z,2.68
2017-12-09T02:10:41.690Z,2.68
2017-12-09T02:12:08.855Z,2.70
2017-12-09T02:13:36.015Z,2.70
2017-12-09T02:15:04.180Z,2.71
2017-12-09T02:16:31.634Z,2.70
2017-12-09T02:17:57.558Z,2.69
2017-12-09T02:19:24.709Z,2.70
2017-12-09T02:20:51.937Z,2.71
2017-12-09T02:22:20.057Z,2.69
2017-12-09T02:23:46.465Z,2.68
2017-12-09T02:25:13.476Z,2.68
2017-12-09T02:26:41.789Z,2.68
2017-12-09T02:28:08.645Z,2.70
2017-12-09T02:29:35.867Z,2.71
2017-12-09T02:31:02.097Z,2.72
2017-12-09T02:32:30.486Z,2.74
2017-12-09T02:33:57.473Z,2.76
2017-12-09T02:35:23.878Z,2.77
2017-12-09T02:36:52.036Z,2.79
2017-12-09T02:38:18.179Z,2.81
2017-12-09T02:39:46.435Z,2.79
2017-12-09T02:41:13.759Z,2.79
2017-12-09T02:42:40.809Z,2.79
2017-12-09T02:44:08.019Z,2.79
2017-12-09T02:45:35.008Z,2.80
2017-12-09T02:47:02.336Z,2.82
2017-12-09T02:48:28.352Z,2.84
2017-12-09T02:49:56.504Z,2.84
2017-12-09T02:51:22.764Z,2.83
2017-12-09T02:52:50.906Z,2.83
2017-12-09T02:54:18.105Z,2.85
2017-12-09T02:55:45.442Z,2.85
2017-12-09T02:57:12.615Z,2.86
2017-12-09T02:58:38.860Z,2.86
2017-12-09T03:00:05.866Z,2.85
2017-12-09T03:01:34.278Z,2.85
2017-12-09T03:03:00.230Z,2.86
2017-12-09T03:04:27.487Z,2.87
2017-12-09T03:05:55.598Z,2.88
2017-12-09T03:07:22.948Z,2.87
2017-12-09T03:08:49.110Z,2.87
2017-12-09T03:10:17.340Z,2.88
2017-12-09T03:11:43.588Z,2.87
2017-12-09T03:13:11.821Z,2.86
2017-12-09T03:14:39.042Z,2.85
2017-12-09T03:16:05.151Z,2.84
2017-12-09T03:17:32.302Z,2.83
2017-12-09T03:19:00.613Z,2.80
2017-12-09T03:20:26.766Z,2.79
2017-12-09T03:21:55.000Z,2.77
2017-12-09T03:23:21.252Z,2.77
2017-12-09T03:24:48.679Z,2.77
2017-12-09T03:26:15.632Z,2.77
2017-12-09T03:27:42.854Z,2.78
2017-12-09T03:29:11.063Z,2.79
2017-12-09T03:30:38.220Z,2.81
2017-12-09T03:32:05.379Z,2.81
2017-12-09T03:33:31.540Z,2.80
2017-12-09T03:34:58.756Z,2.80
2017-12-09T03:36:25.860Z,2.81
2017-12-09T03:37:53.113Z,2.83
2017-12-09T03:39:20.222Z,2.84
2017-12-09T03:40:47.468Z,2.85
2017-12-09T03:42:14.702Z,2.85
2017-12-09T03:43:42.881Z,2.85
2017-12-09T03:45:10.212Z,2.86
2017-12-09T03:46:36.449Z,2.88
2017-12-09T03:48:03.402Z,2.89
2017-12-09T03:49:31.545Z,2.87
2017-12-09T03:50:58.696Z,2.84
2017-12-09T03:52:24.941Z,2.84
2017-12-09T03:53:52.123Z,2.84
2017-12-09T03:55:20.226Z,2.84
2017-12-09T03:56:46.359Z,2.86
2017-12-09T03:58:13.728Z,2.89
2017-12-09T03:59:42.087Z,2.92
2017-12-09T04:01:08.364Z,2.94
2017-12-09T04:02:35.532Z,2.95
2017-12-09T04:04:02.634Z,2.96
2017-12-09T04:05:30.877Z,2.97
2017-12-09T04:06:58.135Z,2.95
2017-12-09T04:08:25.266Z,2.94
2017-12-09T04:09:51.542Z,2.94
2017-12-09T04:11:18.694Z,2.92
2017-12-09T04:12:45.924Z,2.92
2017-12-09T04:14:14.205Z,2.93
2017-12-09T04:15:41.366Z,2.94
2017-12-09T04:17:07.723Z,2.93
2017-12-09T04:18:35.863Z,2.94
2017-12-09T04:20:02.157Z,2.91
2017-12-09T04:21:29.359Z,2.84
2017-12-09T04:22:57.562Z,2.85
2017-12-09T04:24:23.776Z,2.82
2017-12-09T04:25:51.113Z,2.83
2017-12-09T04:27:18.551Z,2.83
2017-12-09T04:28:45.590Z,2.85
2017-12-09T04:30:12.628Z,2.88
2017-12-09T04:31:39.831Z,2.92
2017-12-09T04:33:07.129Z,2.87
2017-12-09T04:34:35.124Z,2.86
2017-12-09T04:36:01.370Z,2.88
2017-12-09T04:37:29.641Z,2.92
2017-12-09T04:38:56.918Z,2.87
2017-12-09T04:40:22.688Z,2.89
2017-12-09T04:41:51.234Z,2.86
2017-12-09T04:43:17.242Z,2.86
2017-12-09T04:44:44.532Z,2.87
2017-12-09T04:46:12.835Z,2.89
2017-12-09T04:47:39.864Z,2.91
2017-12-09T04:49:05.993Z,2.94
2017-12-09T04:50:34.325Z,2.93
2017-12-09T04:52:01.507Z,2.91
2017-12-09T04:53:28.813Z,2.92
2017-12-09T04:54:55.093Z,2.89
2017-12-09T04:56:22.370Z,2.92
2017-12-09T04:57:49.555Z,2.95
2017-12-09T04:59:17.901Z,2.91
2017-12-09T05:00:44.889Z,2.93
2017-12-09T05:02:11.183Z,2.93
2017-12-09T05:03:38.395Z,2.94
2017-12-09T05:05:05.522Z,2.95
2017-12-09T05:06:32.809Z,2.95
2017-12-09T05:07:59.917Z,2.98
2017-12-09T05:09:27.021Z,2.97
2017-12-09T05:10:54.318Z,2.99
2017-12-09T05:12:21.563Z,3.01
2017-12-09T05:13:48.877Z,3.04
2017-12-09T05:15:16.044Z,3.05
2017-12-09T05:16:44.503Z,3.01
2017-12-09T05:18:11.539Z,3.03
2017-12-09T05:19:37.695Z,3.03
2017-12-09T05:21:07.872Z,3.02
2017-12-09T05:22:32.035Z,3.05
2017-12-09T05:24:00.171Z,3.08
2017-12-09T05:25:26.489Z,3.02
2017-12-09T05:26:54.696Z,3.04
2017-12-09T05:28:20.733Z,3.08
2017-12-09T05:29:48.042Z,3.11
2017-12-09T05:31:15.457Z,3.11
2017-12-09T05:32:42.582Z,3.12
2017-12-09T05:34:10.824Z,3.15
2017-12-09T05:35:38.033Z,3.16
2017-12-09T05:37:04.173Z,3.17
2017-12-09T05:38:31.511Z,3.19
2017-12-09T05:39:59.612Z,3.21
2017-12-09T05:41:26.665Z,3.19
2017-12-09T05:42:52.879Z,3.17
2017-12-09T05:44:20.035Z,3.19
2017-12-09T05:45:47.102Z,3.21
2017-12-09T05:47:15.374Z,3.23
2017-12-09T05:48:42.628Z,3.23
2017-12-09T05:50:08.783Z,3.21
2017-12-09T05:51:36.958Z,3.20
2017-12-09T05:53:04.306Z,3.22
2017-12-09T05:54:31.574Z,3.22
2017-12-09T05:55:58.807Z,3.25
2017-12-09T05:57:26.178Z,3.27
2017-12-09T05:58:53.252Z,3.30
2017-12-09T06:00:20.610Z,3.29
2017-12-09T06:01:46.730Z,3.27
2017-12-09T06:03:14.046Z,3.27
2017-12-09T06:04:41.223Z,3.27
2017-12-09T06:06:09.550Z,3.25
2017-12-09T06:07:36.687Z,3.24
2017-12-09T06:09:03.966Z,3.23
2017-12-09T06:10:30.185Z,3.25
2017-12-09T06:11:57.392Z,3.27
2017-12-09T06:13:25.770Z,3.29
2017-12-09T06:14:53.038Z,3.30
2017-12-09T06:16:19.286Z,3.31
2017-12-09T06:17:47.600Z,3.26
2017-12-09T06:19:13.665Z,3.23
2017-12-09T06:20:41.933Z,3.23
2017-12-09T06:22:08.087Z,3.21
2017-12-09T06:23:36.107Z,3.21
2017-12-09T06:25:02.304Z,3.17
2017-12-09T06:26:30.699Z,3.14
2017-12-09T06:27:57.838Z,3.13
2017-12-09T06:29:23.881Z,3.12
2017-12-09T06:30:50.976Z,3.12
2017-12-09T06:32:18.282Z,3.03
2017-12-09T06:33:45.544Z,3.01
2017-12-09T06:35:13.621Z,2.98
2017-12-09T06:36:40.780Z,2.98
2017-12-09T06:38:07.105Z,2.99
2017-12-09T06:39:35.267Z,3.00
2017-12-09T06:41:02.454Z,3.01
2017-12-09T06:42:29.690Z,2.95
2017-12-09T06:43:55.737Z,2.92
2017-12-09T06:45:23.811Z,2.94
2017-12-09T06:46:50.128Z,2.97
2017-12-09T06:48:17.401Z,2.97
2017-12-09T06:49:44.703Z,2.98
2017-12-09T06:51:11.941Z,2.94
2017-12-09T06:52:40.069Z,2.94
2017-12-09T06:54:07.250Z,2.97
2017-12-09T06:55:33.212Z,2.95
2017-12-09T06:57:00.604Z,2.95
2017-12-09T06:58:27.700Z,2.95
2017-12-09T06:59:55.902Z,2.91
2017-12-09T07:01:22.073Z,2.92
2017-12-09T07:02:49.544Z,2.90
2017-12-09T07:04:17.791Z,2.89
2017-12-09T07:05:45.044Z,2.89
2017-12-09T07:07:11.350Z,2.90
2017-12-09T07:08:39.542Z,2.92
2017-12-09T07:10:06.776Z,2.94
2017-12-09T07:11:34.057Z,2.94
2017-12-09T07:13:00.260Z,2.95
2017-12-09T07:14:27.462Z,2.95
2017-12-09T07:15:54.731Z,2.94
2017-12-09T07:17:22.069Z,2.91
2017-12-09T07:18:50.193Z,2.90
2017-12-09T07:20:16.456Z,2.84
2017-12-09T07:21:43.625Z,2.81
2017-12-09T07:23:10.750Z,2.79
2017-12-09T07:24:38.830Z,2.72
2017-12-09T07:26:05.029Z,2.73
2017-12-09T07:27:33.345Z,2.71
2017-12-09T07:28:59.675Z,2.74
2017-12-09T07:30:27.873Z,2.76
2017-12-09T07:31:53.984Z,2.77
2017-12-09T07:33:22.439Z,2.77
2017-12-09T07:34:48.528Z,2.77
2017-12-09T07:36:16.666Z,2.80
2017-12-09T07:37:43.826Z,2.83
2017-12-09T07:39:09.833Z,2.82
2017-12-09T07:40:37.026Z,2.85
2017-12-09T07:42:04.114Z,2.84
2017-12-09T07:43:31.378Z,2.84
2017-12-09T07:44:59.456Z,2.86
2017-12-09T07:46:25.716Z,2.87
2017-12-09T07:47:53.031Z,2.88
2017-12-09T07:49:21.360Z,2.88
2017-12-09T07:50:47.489Z,2.91
2017-12-09T07:52:14.772Z,2.89
2017-12-09T07:53:42.121Z,2.91
2017-12-09T07:55:09.389Z,2.89
2017-12-09T07:56:36.525Z,2.85
2017-12-09T07:58:03.546Z,2.89
2017-12-09T07:59:30.912Z,2.93
2017-12-09T08:00:59.127Z,2.94
2017-12-09T08:02:25.217Z,2.96
2017-12-09T08:03:52.538Z,2.97
2017-12-09T08:05:20.661Z,3.00
2017-12-09T08:06:46.959Z,2.96
2017-12-09T08:08:14.195Z,2.95
2017-12-09T08:09:41.349Z,2.91
2017-12-09T08:11:08.500Z,2.91
2017-12-09T08:12:36.625Z,2.95
2017-12-09T08:14:02.731Z,2.95
2017-12-09T08:15:29.831Z,2.94
2017-12-09T08:16:57.123Z,2.95
2017-12-09T08:18:24.290Z,2.93
2017-12-09T08:19:51.522Z,2.93
2017-12-09T08:21:18.720Z,2.95
2017-12-09T08:22:47.018Z,2.94
2017-12-09T08:24:14.254Z,2.96
2017-12-09T08:25:41.570Z,2.98
2017-12-09T08:27:08.847Z,3.02
2017-12-09T08:28:35.057Z,3.02
2017-12-09T08:30:02.358Z,2.95
2017-12-09T08:31:29.524Z,2.92
2017-12-09T08:32:56.785Z,2.91
2017-12-09T08:34:24.966Z,2.88
2017-12-09T08:35:51.246Z,2.89
2017-12-09T08:37:18.527Z,2.88
2017-12-09T08:38:45.795Z,2.91
2017-12-09T08:40:13.972Z,2.92
2017-12-09T08:41:40.064Z,2.94
2017-12-09T08:43:07.246Z,2.96
2017-12-09T08:44:34.426Z,2.95
2017-12-09T08:46:01.674Z,2.96
2017-12-09T08:47:28.793Z,2.97
2017-12-09T08:48:56.987Z,2.99
2017-12-09T08:50:24.287Z,3.01
2017-12-09T08:51:50.619Z,3.04
2017-12-09T08:53:18.803Z,3.11
2017-12-09T08:54:46.156Z,3.13
2017-12-09T08:56:12.276Z,3.16
2017-12-09T08:57:40.616Z,3.16
2017-12-09T08:59:07.927Z,3.13
2017-12-09T09:00:34.900Z,3.12
2017-12-09T09:02:01.183Z,3.14
2017-12-09T09:03:28.378Z,3.17
2017-12-09T09:04:56.673Z,3.16
2017-12-09T09:06:22.928Z,3.16
2017-12-09T09:07:51.044Z,3.18
2017-12-09T09:09:18.219Z,3.21
2017-12-09T09:10:44.522Z,3.24
2017-12-09T09:12:12.917Z,3.22
2017-12-09T09:13:38.889Z,3.25
2017-12-09T09:15:05.853Z,3.26
2017-12-09T09:16:32.853Z,3.25
2017-12-09T09:18:00.210Z,3.27
2017-12-09T09:19:27.256Z,3.28
2017-12-09T09:20:54.578Z,3.25
2017-12-09T09:22:22.740Z,3.25
2017-12-09T09:23:48.993Z,3.27
2017-12-09T09:25:17.266Z,3.26
2017-12-09T09:26:43.470Z,3.25
2017-12-09T09:28:10.588Z,3.23
2017-12-09T09:29:38.799Z,3.23
2017-12-09T09:31:04.873Z,3.26
2017-12-09T09:32:32.139Z,3.30
2017-12-09T09:33:59.270Z,3.34
2017-12-09T09:35:27.625Z,3.36
2017-12-09T09:36:53.933Z,3.40
2017-12-09T09:38:22.189Z,3.42
2017-12-09T09:39:49.266Z,3.46
2017-12-09T09:41:16.533Z,3.47
2017-12-09T09:42:43.585Z,3.49
2017-12-09T09:44:10.839Z,3.50
2017-12-09T09:45:36.951Z,3.55
2017-12-09T09:47:04.058Z,3.58
2017-12-09T09:48:31.183Z,3.59
2017-12-09T09:49:59.610Z,3.54
2017-12-09T09:51:25.656Z,3.58
2017-12-09T09:52:52.825Z,3.60
2017-12-09T09:54:21.298Z,3.61
2017-12-09T09:55:47.543Z,3.60
2017-12-09T09:57:14.667Z,3.60
2017-12-09T09:58:41.905Z,3.61
2017-12-09T10:00:09.158Z,3.61
2017-12-09T10:01:37.468Z,3.63
2017-12-09T10:03:03.381Z,3.63
2017-12-09T10:04:30.580Z,3.65
2017-12-09T10:05:57.923Z,3.65
2017-12-09T10:07:25.065Z,3.63
2017-12-09T10:08:52.415Z,3.63
2017-12-09T10:10:20.752Z,3.65
2017-12-09T10:11:47.975Z,3.67
2017-12-09T10:13:14.163Z,3.65
2017-12-09T10:14:42.508Z,3.64
2017-12-09T10:16:08.752Z,3.66
2017-12-09T10:17:35.983Z,3.65
2017-12-09T10:19:02.986Z,3.67
2017-12-09T10:20:30.184Z,3.69
2017-12-09T10:21:57.566Z,3.70
2017-12-09T10:23:24.858Z,3.74
2017-12-09T10:24:53.065Z,3.78
2017-12-09T10:26:20.042Z,3.80
2017-12-09T10:27:46.286Z,3.80
2017-12-09T10:29:13.573Z,3.80
2017-12-09T10:30:41.798Z,3.80
2017-12-09T10:32:08.932Z,3.85
2017-12-09T10:33:35.206Z,3.86
2017-12-09T10:35:03.353Z,3.86
2017-12-09T10:36:30.507Z,3.81
2017-12-09T10:37:57.675Z,3.82
2017-12-09T10:39:25.043Z,3.81
2017-12-09T10:40:52.180Z,3.81
2017-12-09T10:42:18.465Z,3.80
2017-12-09T10:43:46.782Z,3.81
2017-12-09T10:45:13.082Z,3.82
2017-12-09T10:46:41.413Z,3.81
2017-12-09T10:48:08.467Z,3.79
2017-12-09T10:49:35.622Z,3.79
2017-12-09T10:51:01.938Z,3.78
2017-12-09T10:52:29.983Z,3.77
2017-12-09T10:53:56.379Z,3.77
2017-12-09T10:55:24.635Z,3.78
2017-12-09T10:56:50.539Z,3.78
2017-12-09T10:58:17.673Z,3.80
2017-12-09T10:59:44.867Z,3.82
2017-12-09T11:01:12.166Z,3.87
2017-12-09T11:02:39.615Z,3.89
2017-12-09T11:04:06.851Z,3.95
2017-12-09T11:05:33.852Z,3.97
2017-12-09T11:07:01.133Z,4.00
2017-12-09T11:08:28.310Z,3.96
2017-12-09T11:09:56.496Z,4.00
2017-12-09T11:11:23.903Z,4.05
2017-12-09T11:12:51.139Z,4.07
2017-12-09T11:14:17.215Z,4.13
2017-12-09T11:15:44.388Z,4.15
2017-12-09T11:17:12.731Z,4.13
2017-12-09T11:18:38.893Z,4.12
2017-12-09T11:20:06.198Z,4.09
2017-12-09T11:21:33.429Z,4.10
2017-12-09T11:23:01.450Z,4.13
2017-12-09T11:24:28.597Z,4.16
2017-12-09T11:25:54.924Z,4.18
2017-12-09T11:27:22.140Z,4.20
2017-12-09T11:28:50.450Z,4.22
2017-12-09T11:30:17.543Z,4.24
2017-12-09T11:31:43.870Z,4.30
2017-12-09T11:33:11.165Z,4.29
2017-12-09T11:34:39.430Z,4.32
2017-12-09T11:36:06.474Z,4.36
2017-12-09T11:37:32.689Z,4.43
2017-12-09T11:39:00.034Z,4.48
2017-12-09T11:40:27.321Z,4.45
2017-12-09T11:41:55.486Z,4.41
2017-12-09T11:43:22.656Z,4.43
2017-12-09T11:44:49.854Z,4.45
2017-12-09T11:46:17.146Z,4.48
2017-12-09T11:47:44.239Z,4.46
2017-12-09T11:49:10.615Z,4.50
2017-12-09T11:50:37.758Z,4.47
2017-12-09T11:52:04.962Z,4.47
2017-12-09T11:53:32.056Z,4.46
2017-12-09T11:54:59.234Z,4.48
2017-12-09T11:56:26.469Z,4.48
2017-12-09T11:57:53.739Z,4.45
2017-12-09T11:59:21.982Z,4.43
2017-12-09T12:00:48.274Z,4.43
2017-12-09T12:02:16.502Z,4.44
2017-12-09T12:03:42.739Z,4.41
2017-12-09T12:05:09.913Z,4.42
2017-12-09T12:06:37.017Z,4.42
2017-12-09T12:08:05.262Z,4.41
2017-12-09T12:09:32.492Z,4.40
2017-12-09T12:10:58.794Z,4.40
2017-12-09T12:12:25.978Z,4.40
2017-12-09T12:13:53.214Z,4.41
2017-12-09T12:15:20.512Z,4.41
2017-12-09T12:16:48.836Z,4.42
2017-12-09T12:18:16.157Z,4.44
2017-12-09T12:19:43.262Z,4.46
2017-12-09T12:21:09.481Z,4.42
2017-12-09T12:22:36.758Z,4.39
2017-12-09T12:24:03.922Z,4.38
2017-12-09T12:25:32.272Z,4.38
2017-12-09T12:26:59.530Z,4.40
2017-12-09T12:28:25.824Z,4.41
2017-12-09T12:29:53.170Z,4.41
2017-12-09T12:31:21.501Z,4.40
2017-12-09T12:32:47.626Z,4.39
2017-12-09T12:34:14.949Z,4.44
2017-12-09T12:35:43.275Z,4.45
2017-12-09T12:37:09.601Z,4.45
2017-12-09T12:38:36.742Z,4.42
2017-12-09T12:40:03.842Z,4.43
2017-12-09T12:41:32.043Z,4.42
2017-12-09T12:42:58.473Z,4.47
2017-12-09T12:44:26.672Z,4.50
2017-12-09T12:45:52.902Z,4.55
2017-12-09T12:47:20.190Z,4.59
2017-12-09T12:48:47.418Z,4.64
2017-12-09T12:50:15.639Z,4.67
2017-12-09T12:51:42.844Z,4.65
2017-12-09T12:53:08.968Z,4.64
2017-12-09T12:54:36.316Z,4.64
2017-12-09T12:56:03.216Z,4.60
2017-12-09T12:57:31.823Z,4.63
2017-12-09T12:58:58.942Z,4.63
2017-12-09T13:00:25.211Z,4.60
2017-12-09T13:01:52.610Z,4.60
2017-12-09T13:03:19.743Z,4.62
2017-12-09T13:04:47.782Z,4.64
2017-12-09T13:06:13.924Z,4.62
2017-12-09T13:07:42.026Z,4.60
2017-12-09T13:09:08.374Z,4.59
2017-12-09T13:10:35.416Z,4.61
2017-12-09T13:12:02.776Z,4.64
2017-12-09T13:13:30.016Z,4.66
2017-12-09T13:14:57.325Z,4.59
2017-12-09T13:16:24.695Z,4.55
2017-12-09T13:17:51.907Z,4.52
2017-12-09T13:19:19.385Z,4.52
2017-12-09T13:20:46.627Z,4.55
2017-12-09T13:22:14.860Z,4.63
2017-12-09T13:23:41.025Z,4.66
2017-12-09T13:25:08.425Z,4.70
2017-12-09T13:26:35.634Z,4.73
2017-12-09T13:28:03.924Z,4.74
2017-12-09T13:29:31.122Z,4.71
2017-12-09T13:30:58.559Z,4.74
2017-12-09T13:32:25.571Z,4.75
2017-12-09T13:33:51.929Z,4.78
2017-12-09T13:35:19.206Z,4.76
2017-12-09T13:36:47.457Z,4.77
2017-12-09T13:38:13.652Z,4.75
2017-12-09T13:39:41.955Z,4.76
2017-12-09T13:41:09.200Z,4.73
2017-12-09T13:42:35.378Z,4.75
2017-12-09T13:44:02.684Z,4.68
2017-12-09T13:45:29.902Z,4.68
2017-12-09T13:46:57.974Z,4.65
2017-12-09T13:48:24.205Z,4.67
2017-12-09T13:49:52.546Z,4.68
2017-12-09T13:51:18.769Z,4.63
2017-12-09T13:52:46.125Z,4.62
2017-12-09T13:54:13.171Z,4.59
2017-12-09T13:55:41.530Z,4.56
2017-12-09T13:57:08.560Z,4.53
2017-12-09T13:58:34.869Z,4.50
2017-12-09T14:00:02.160Z,4.46
2017-12-09T14:01:29.514Z,4.44
2017-12-09T14:02:56.762Z,4.41
2017-12-09T14:04:23.978Z,4.42
2017-12-09T14:05:52.516Z,4.41
2017-12-09T14:07:18.589Z,4.37
2017-12-09T14:08:45.817Z,4.29
2017-12-09T14:10:14.113Z,4.25
2017-12-09T14:11:41.480Z,4.28
2017-12-09T14:13:07.602Z,4.25
2017-12-09T14:14:35.770Z,4.25
2017-12-09T14:16:01.970Z,4.24
2017-12-09T14:17:30.521Z,4.23
2017-12-09T14:18:57.875Z,4.23
2017-12-09T14:20:24.961Z,4.22
2017-12-09T14:21:52.314Z,4.17
2017-12-09T14:23:18.443Z,4.14
2017-12-09T14:24:46.845Z,4.12
2017-12-09T14:26:13.116Z,4.10
2017-12-09T14:27:40.380Z,4.06
2017-12-09T14:29:08.709Z,4.00
2017-12-09T14:30:34.850Z,3.96
2017-12-09T14:32:02.893Z,3.93
2017-12-09T14:33:29.059Z,3.93
2017-12-09T14:34:57.295Z,3.95
2017-12-09T14:36:23.611Z,3.99
2017-12-09T14:37:51.926Z,3.99
2017-12-09T14:39:19.245Z,3.99
2017-12-09T14:40:46.574Z,3.98
2017-12-09T14:42:12.787Z,3.94
2017-12-09T14:43:41.009Z,3.91
2017-12-09T14:45:07.363Z,3.89
2017-12-09T14:46:34.484Z,3.92
2017-12-09T14:48:02.722Z,3.90
2017-12-09T14:49:30.036Z,3.90
2017-12-09T14:50:56.373Z,3.92
2017-12-09T14:52:23.577Z,3.94
2017-12-09T14:53:50.931Z,3.97
2017-12-09T14:55:18.087Z,3.94
2017-12-09T14:56:46.269Z,3.93
2017-12-09T14:58:12.325Z,3.93
2017-12-09T14:59:39.473Z,3.94
2017-12-09T15:01:07.721Z,3.91
2017-12-09T15:02:33.755Z,3.91
2017-12-09T15:04:00.976Z,3.94
2017-12-09T15:05:28.229Z,3.93
2017-12-09T15:06:55.506Z,3.91
2017-12-09T15:08:22.813Z,3.92
2017-12-09T15:09:50.052Z,3.92
2017-12-09T15:11:17.364Z,3.90
2017-12-09T15:12:45.584Z,3.90
2017-12-09T15:14:12.708Z,3.93
2017-12-09T15:15:38.924Z,3.96
2017-12-09T15:17:06.071Z,4.00
2017-12-09T15:18:34.305Z,4.00
2017-12-09T15:20:01.700Z,4.00
2017-12-09T15:21:28.015Z,4.00
2017-12-09T15:22:56.192Z,3.97
2017-12-09T15:24:23.359Z,3.92
2017-12-09T15:25:50.537Z,3.85
2017-12-09T15:27:16.869Z,3.83
2017-12-09T15:28:44.060Z,3.83
2017-12-09T15:30:11.272Z,3.83
2017-12-09T15:31:44.709Z,3.83
2017-12-09T15:33:05.770Z,3.81
2017-12-09T15:34:32.974Z,3.78
2017-12-09T15:36:00.109Z,3.70
2017-12-09T15:37:28.415Z,3.64
2017-12-09T15:38:55.558Z,3.64
2017-12-09T15:40:21.872Z,3.65
2017-12-09T15:41:49.116Z,3.62
2017-12-09T15:43:16.476Z,3.57
2017-12-09T15:44:44.648Z,3.56
2017-12-09T15:46:11.631Z,3.55
2017-12-09T15:47:38.002Z,3.58
2017-12-09T15:49:06.105Z,3.62
2017-12-09T15:50:32.366Z,3.61
2017-12-09T15:51:59.699Z,3.60
2017-12-09T15:53:27.013Z,3.62
2017-12-09T15:54:55.418Z,3.60
2017-12-09T15:56:21.600Z,3.61
2017-12-09T15:57:48.888Z,3.62
2017-12-09T15:59:16.167Z,3.67
2017-12-09T16:00:43.292Z,3.70
2017-12-09T16:02:11.694Z,3.76
2017-12-09T16:03:37.677Z,3.79
2017-12-09T16:05:04.736Z,3.82
2017-12-09T16:06:32.162Z,3.77
2017-12-09T16:08:00.544Z,3.76
2017-12-09T16:09:27.658Z,3.76
2017-12-09T16:10:57.062Z,3.75
2017-12-09T16:12:22.088Z,3.74
2017-12-09T16:13:48.557Z,3.74
2017-12-09T16:15:15.826Z,3.72
2017-12-09T16:16:44.107Z,3.69
2017-12-09T16:18:10.400Z,3.70
2017-12-09T16:19:37.774Z,3.69
2017-12-09T16:21:04.690Z,3.67
2017-12-09T16:22:31.838Z,3.69
2017-12-09T16:23:58.991Z,3.65
2017-12-09T16:25:27.226Z,3.64
2017-12-09T16:26:53.389Z,3.58
2017-12-09T16:28:21.672Z,3.55
2017-12-09T16:29:48.090Z,3.52
2017-12-09T16:31:15.127Z,3.48
2017-12-09T16:32:42.411Z,3.44
2017-12-09T16:34:09.624Z,3.39
2017-12-09T16:35:37.888Z,3.40
2017-12-09T16:37:05.059Z,3.39
2017-12-09T16:38:32.436Z,3.38
2017-12-09T16:39:59.620Z,3.39
2017-12-09T16:41:25.920Z,3.40
2017-12-09T16:42:54.177Z,3.39
2017-12-09T16:44:20.569Z,3.37
2017-12-09T16:45:48.988Z,3.39
2017-12-09T16:47:15.165Z,3.36
2017-12-09T16:48:42.334Z,3.31
2017-12-09T16:50:09.623Z,3.26
2017-12-09T16:51:36.843Z,3.24
2017-12-09T16:53:03.905Z,3.24
2017-12-09T16:54:32.283Z,3.23
2017-12-09T16:55:58.374Z,3.19
2017-12-09T16:57:26.491Z,3.17
2017-12-09T16:58:53.837Z,3.14
2017-12-09T17:00:20.120Z,3.13
2017-12-09T17:01:47.496Z,3.12
2017-12-09T17:03:15.720Z,3.15
2017-12-09T17:04:41.986Z,3.16
2017-12-09T17:06:10.286Z,3.17
2017-12-09T17:07:37.489Z,3.18
2017-12-09T17:09:04.417Z,3.19
2017-12-09T17:10:31.683Z,3.19
2017-12-09T17:11:59.079Z,3.20
2017-12-09T17:13:25.231Z,3.21
2017-12-09T17:14:53.646Z,3.15
2017-12-09T17:16:20.729Z,3.15
2017-12-09T17:17:47.795Z,3.16
2017-12-09T17:19:14.148Z,3.13
2017-12-09T17:20:42.374Z,3.15
2017-12-09T17:22:08.716Z,3.18
2017-12-09T17:23:36.629Z,3.21
2017-12-09T17:25:04.217Z,3.24
2017-12-09T17:26:30.296Z,3.21
2017-12-09T17:27:57.586Z,3.21
2017-12-09T17:29:25.715Z,3.19
2017-12-09T17:30:51.930Z,3.15
2017-12-09T17:32:20.108Z,3.16
2017-12-09T17:33:47.395Z,3.18
2017-12-09T17:35:13.805Z,3.18
2017-12-09T17:36:41.977Z,3.13
2017-12-09T17:38:08.343Z,3.13
2017-12-09T17:39:36.528Z,3.15
2017-12-09T17:41:03.853Z,3.18
2017-12-09T17:42:30.058Z,3.18
2017-12-09T17:43:57.285Z,3.11
2017-12-09T17:45:25.603Z,3.10
2017-12-09T17:46:51.791Z,3.07
2017-12-09T17:48:19.233Z,3.07
2017-12-09T17:49:47.260Z,3.05
2017-12-09T17:51:14.439Z,3.04
2017-12-09T17:52:40.754Z,3.07
2017-12-09T17:54:08.995Z,3.07
2017-12-09T17:55:36.246Z,3.08
2017-12-09T17:57:03.402Z,3.10
2017-12-09T17:58:29.804Z,3.10
2017-12-09T17:59:56.925Z,3.10
2017-12-09T18:01:25.286Z,3.09
2017-12-09T18:02:52.629Z,3.05
2017-12-09T18:04:19.484Z,3.05
2017-12-09T18:05:46.809Z,3.02
2017-12-09T18:07:13.991Z,3.02
2017-12-09T18:08:41.165Z,3.02
2017-12-09T18:10:08.506Z,2.96
2017-12-09T18:11:34.378Z,2.98
2017-12-09T18:13:01.655Z,2.92
2017-12-09T18:14:30.027Z,2.85
2017-12-09T18:15:57.268Z,2.85
2017-12-09T18:17:24.625Z,2.89
2017-12-09T18:18:51.797Z,2.93
2017-12-09T18:20:18.024Z,2.90
2017-12-09T18:21:46.338Z,2.84
2017-12-09T18:23:12.639Z,2.81
2017-12-09T18:24:40.932Z,2.84
2017-12-09T18:26:07.109Z,2.81
2017-12-09T18:27:34.231Z,2.73
2017-12-09T18:29:01.584Z,2.71
2017-12-09T18:30:28.787Z,2.66
2017-12-09T18:31:57.040Z,2.64
2017-12-09T18:33:23.196Z,2.67
2017-12-09T18:34:50.322Z,2.69
2017-12-09T18:36:17.454Z,2.65
2017-12-09T18:37:45.762Z,2.66
2017-12-09T18:39:12.836Z,2.69
2017-12-09T18:40:39.989Z,2.67
2017-12-09T18:42:07.224Z,2.67
2017-12-09T18:43:33.657Z,2.70
2017-12-09T18:45:00.783Z,2.70
2017-12-09T18:46:28.087Z,2.73
2017-12-09T18:47:55.290Z,2.71
2017-12-09T18:49:23.520Z,2.67
2017-12-09T18:50:49.886Z,2.63
2017-12-09T18:52:18.231Z,2.65
2017-12-09T18:53:44.532Z,2.65
2017-12-09T18:55:12.630Z,2.68
2017-12-09T18:56:38.755Z,2.65
2017-12-09T18:58:06.924Z,2.60
2017-12-09T18:59:34.264Z,2.59
2017-12-09T19:01:00.599Z,2.53
2017-12-09T19:02:28.782Z,2.53
2017-12-09T19:03:54.993Z,2.56
2017-12-09T19:05:22.222Z,2.56
2017-12-09T19:06:49.521Z,2.56
2017-12-09T19:08:16.756Z,2.54
2017-12-09T19:09:43.925Z,2.54
2017-12-09T19:11:11.068Z,2.56
2017-12-09T19:12:39.051Z,2.59
2017-12-09T19:14:05.494Z,2.61
2017-12-09T19:15:32.757Z,2.67
2017-12-09T19:17:01.169Z,2.66
2017-12-09T19:18:27.262Z,2.69
2017-12-09T19:19:55.580Z,2.70
2017-12-09T19:21:22.648Z,2.68